sensor_id;sensor_type;location;lat;lon;timestamp;P1;durP1;ratioP1;P2;durP2;ratioP2
22336;SDS011;14992;50.844;4.418;2023-09-12T00:01:08;29.70;;;18.75;;
22336;SDS011;14992;50.844;4.418;2023-09-12T00:03:38;27.52;;;17.02;;
22336;SDS011;14992;50.844;4.418;2023-09-12T00:06:07;28.70;;;17.50;;
22336;SDS011;14992;50.844;4.418;2023-09-12T00:08:36;30.55;;;18.83;;
22336;SDS011;14992;50.844;4.418;2023-09-12T00:11:05;28.05;;;17.58;;
22336;SDS011;14992;50.844;4.418;2023-09-12T00:13:37;29.08;;;17.83;;
22336;SDS011;14992;50.844;4.418;2023-09-12T00:16:08;32.47;;;19.75;;
22336;SDS011;14992;50.844;4.418;2023-09-12T00:18:39;31.73;;;19.50;;
22336;SDS011;14992;50.844;4.418;2023-09-12T00:21:09;33.92;;;20.00;;
22336;SDS011;14992;50.844;4.418;2023-09-12T00:23:38;30.77;;;18.45;;
22336;SDS011;14992;50.844;4.418;2023-09-12T00:26:07;23.73;;;14.82;;
22336;SDS011;14992;50.844;4.418;2023-09-12T00:28:36;19.23;;;12.57;;
22336;SDS011;14992;50.844;4.418;2023-09-12T00:31:06;18.73;;;11.68;;
22336;SDS011;14992;50.844;4.418;2023-09-12T00:33:34;20.30;;;12.55;;
22336;SDS011;14992;50.844;4.418;2023-09-12T00:36:05;25.58;;;13.25;;
22336;SDS011;14992;50.844;4.418;2023-09-12T00:38:34;19.17;;;13.07;;
22336;SDS011;14992;50.844;4.418;2023-09-12T00:41:02;18.13;;;12.48;;
22336;SDS011;14992;50.844;4.418;2023-09-12T00:43:31;19.88;;;13.45;;
22336;SDS011;14992;50.844;4.418;2023-09-12T00:46:00;20.75;;;13.93;;
22336;SDS011;14992;50.844;4.418;2023-09-12T00:48:29;19.80;;;12.43;;
22336;SDS011;14992;50.844;4.418;2023-09-12T00:50:58;19.52;;;13.10;;
22336;SDS011;14992;50.844;4.418;2023-09-12T00:53:31;24.38;;;12.57;;
22336;SDS011;14992;50.844;4.418;2023-09-12T00:56:00;18.05;;;12.85;;
22336;SDS011;14992;50.844;4.418;2023-09-12T00:58:29;19.95;;;12.38;;
22336;SDS011;14992;50.844;4.418;2023-09-12T01:00:58;18.38;;;12.25;;
22336;SDS011;14992;50.844;4.418;2023-09-12T01:03:27;20.25;;;12.80;;
22336;SDS011;14992;50.844;4.418;2023-09-12T01:05:56;21.65;;;14.23;;
22336;SDS011;14992;50.844;4.418;2023-09-12T01:08:26;20.15;;;14.00;;
22336;SDS011;14992;50.844;4.418;2023-09-12T01:10:57;21.00;;;13.95;;
22336;SDS011;14992;50.844;4.418;2023-09-12T01:13:26;22.55;;;13.98;;
22336;SDS011;14992;50.844;4.418;2023-09-12T01:15:55;19.48;;;13.52;;
22336;SDS011;14992;50.844;4.418;2023-09-12T01:18:24;20.67;;;13.73;;
22336;SDS011;14992;50.844;4.418;2023-09-12T01:21:00;21.38;;;13.82;;
22336;SDS011;14992;50.844;4.418;2023-09-12T01:23:56;23.10;;;13.88;;
22336;SDS011;14992;50.844;4.418;2023-09-12T01:26:41;19.25;;;13.18;;
22336;SDS011;14992;50.844;4.418;2023-09-12T01:29:18;20.40;;;14.18;;
22336;SDS011;14992;50.844;4.418;2023-09-12T01:31:49;23.30;;;14.80;;
22336;SDS011;14992;50.844;4.418;2023-09-12T01:34:20;23.95;;;14.25;;
22336;SDS011;14992;50.844;4.418;2023-09-12T01:36:49;23.92;;;15.18;;
22336;SDS011;14992;50.844;4.418;2023-09-12T01:39:18;26.10;;;15.60;;
22336;SDS011;14992;50.844;4.418;2023-09-12T01:41:47;26.25;;;16.67;;
22336;SDS011;14992;50.844;4.418;2023-09-12T01:44:19;22.77;;;14.90;;
22336;SDS011;14992;50.844;4.418;2023-09-12T01:46:49;27.45;;;15.93;;
22336;SDS011;14992;50.844;4.418;2023-09-12T01:49:22;28.40;;;16.77;;
22336;SDS011;14992;50.844;4.418;2023-09-12T01:51:52;27.25;;;16.38;;
22336;SDS011;14992;50.844;4.418;2023-09-12T01:54:22;29.92;;;15.93;;
22336;SDS011;14992;50.844;4.418;2023-09-12T01:56:51;26.85;;;16.60;;
22336;SDS011;14992;50.844;4.418;2023-09-12T01:59:22;28.55;;;17.02;;
22336;SDS011;14992;50.844;4.418;2023-09-12T02:01:51;26.17;;;15.27;;
22336;SDS011;14992;50.844;4.418;2023-09-12T02:04:20;28.73;;;16.05;;
22336;SDS011;14992;50.844;4.418;2023-09-12T02:06:49;30.92;;;16.00;;
22336;SDS011;14992;50.844;4.418;2023-09-12T02:09:18;27.38;;;18.20;;
22336;SDS011;14992;50.844;4.418;2023-09-12T02:11:48;33.40;;;17.63;;
22336;SDS011;14992;50.844;4.418;2023-09-12T02:14:19;32.05;;;17.30;;
22336;SDS011;14992;50.844;4.418;2023-09-12T02:16:49;30.58;;;17.02;;
22336;SDS011;14992;50.844;4.418;2023-09-12T02:21:48;26.30;;;15.35;;
22336;SDS011;14992;50.844;4.418;2023-09-12T02:24:17;25.90;;;15.23;;
22336;SDS011;14992;50.844;4.418;2023-09-12T02:26:48;27.17;;;15.40;;
22336;SDS011;14992;50.844;4.418;2023-09-12T02:29:17;26.08;;;17.95;;
22336;SDS011;14992;50.844;4.418;2023-09-12T02:31:46;30.00;;;17.88;;
22336;SDS011;14992;50.844;4.418;2023-09-12T02:34:16;31.15;;;20.52;;
22336;SDS011;14992;50.844;4.418;2023-09-12T02:36:45;32.20;;;20.15;;
22336;SDS011;14992;50.844;4.418;2023-09-12T02:39:14;35.25;;;21.40;;
22336;SDS011;14992;50.844;4.418;2023-09-12T02:41:43;38.85;;;23.35;;
22336;SDS011;14992;50.844;4.418;2023-09-12T02:44:11;44.30;;;24.13;;
22336;SDS011;14992;50.844;4.418;2023-09-12T02:46:41;43.10;;;24.48;;
22336;SDS011;14992;50.844;4.418;2023-09-12T02:49:11;42.60;;;22.95;;
22336;SDS011;14992;50.844;4.418;2023-09-12T02:51:41;40.85;;;23.08;;
22336;SDS011;14992;50.844;4.418;2023-09-12T02:54:10;42.55;;;24.05;;
22336;SDS011;14992;50.844;4.418;2023-09-12T02:56:39;46.25;;;24.17;;
22336;SDS011;14992;50.844;4.418;2023-09-12T02:59:07;43.78;;;26.20;;
22336;SDS011;14992;50.844;4.418;2023-09-12T03:01:36;40.90;;;23.00;;
22336;SDS011;14992;50.844;4.418;2023-09-12T03:04:05;43.17;;;25.23;;
22336;SDS011;14992;50.844;4.418;2023-09-12T03:06:34;44.47;;;25.67;;
22336;SDS011;14992;50.844;4.418;2023-09-12T03:09:06;44.88;;;25.48;;
22336;SDS011;14992;50.844;4.418;2023-09-12T03:11:34;42.72;;;25.17;;
22336;SDS011;14992;50.844;4.418;2023-09-12T03:14:03;45.45;;;25.60;;
22336;SDS011;14992;50.844;4.418;2023-09-12T03:16:33;42.33;;;24.25;;
22336;SDS011;14992;50.844;4.418;2023-09-12T03:19:03;43.72;;;24.23;;
22336;SDS011;14992;50.844;4.418;2023-09-12T03:21:32;45.58;;;25.02;;
22336;SDS011;14992;50.844;4.418;2023-09-12T03:24:01;44.58;;;24.88;;
22336;SDS011;14992;50.844;4.418;2023-09-12T03:26:33;45.50;;;25.40;;
22336;SDS011;14992;50.844;4.418;2023-09-12T03:29:02;44.60;;;24.13;;
22336;SDS011;14992;50.844;4.418;2023-09-12T03:31:31;44.45;;;24.83;;
22336;SDS011;14992;50.844;4.418;2023-09-12T03:34:00;42.28;;;23.25;;
22336;SDS011;14992;50.844;4.418;2023-09-12T03:36:29;45.13;;;24.35;;
22336;SDS011;14992;50.844;4.418;2023-09-12T03:38:58;42.53;;;24.55;;
22336;SDS011;14992;50.844;4.418;2023-09-12T03:41:27;39.92;;;23.10;;
22336;SDS011;14992;50.844;4.418;2023-09-12T03:43:58;41.90;;;22.42;;
22336;SDS011;14992;50.844;4.418;2023-09-12T03:46:27;43.53;;;23.90;;
22336;SDS011;14992;50.844;4.418;2023-09-12T03:48:58;46.53;;;24.70;;
22336;SDS011;14992;50.844;4.418;2023-09-12T03:51:26;46.47;;;25.73;;
22336;SDS011;14992;50.844;4.418;2023-09-12T03:53:56;44.45;;;23.52;;
22336;SDS011;14992;50.844;4.418;2023-09-12T03:56:25;44.58;;;24.25;;
22336;SDS011;14992;50.844;4.418;2023-09-12T03:58:54;41.92;;;23.45;;
22336;SDS011;14992;50.844;4.418;2023-09-12T04:01:26;38.00;;;22.77;;
22336;SDS011;14992;50.844;4.418;2023-09-12T04:03:56;41.95;;;23.05;;
22336;SDS011;14992;50.844;4.418;2023-09-12T04:06:29;38.95;;;22.38;;
22336;SDS011;14992;50.844;4.418;2023-09-12T04:08:58;44.28;;;23.40;;
22336;SDS011;14992;50.844;4.418;2023-09-12T04:11:27;39.33;;;21.52;;
22336;SDS011;14992;50.844;4.418;2023-09-12T04:14:12;39.63;;;23.05;;
22336;SDS011;14992;50.844;4.418;2023-09-12T04:16:43;45.67;;;25.45;;
22336;SDS011;14992;50.844;4.418;2023-09-12T04:19:13;40.20;;;21.50;;
22336;SDS011;14992;50.844;4.418;2023-09-12T04:21:42;55.58;;;34.33;;
22336;SDS011;14992;50.844;4.418;2023-09-12T04:24:11;38.22;;;22.60;;
22336;SDS011;14992;50.844;4.418;2023-09-12T04:26:40;37.83;;;20.45;;
22336;SDS011;14992;50.844;4.418;2023-09-12T04:29:11;36.65;;;20.55;;
22336;SDS011;14992;50.844;4.418;2023-09-12T04:31:39;39.60;;;22.58;;
22336;SDS011;14992;50.844;4.418;2023-09-12T04:34:10;38.20;;;21.00;;
22336;SDS011;14992;50.844;4.418;2023-09-12T04:36:38;39.85;;;20.80;;
22336;SDS011;14992;50.844;4.418;2023-09-12T04:39:07;39.92;;;22.17;;
22336;SDS011;14992;50.844;4.418;2023-09-12T04:41:36;42.70;;;23.33;;
22336;SDS011;14992;50.844;4.418;2023-09-12T04:44:05;61.67;;;35.08;;
22336;SDS011;14992;50.844;4.418;2023-09-12T04:46:34;41.65;;;23.05;;
22336;SDS011;14992;50.844;4.418;2023-09-12T04:49:04;43.25;;;22.63;;
22336;SDS011;14992;50.844;4.418;2023-09-12T04:51:34;34.10;;;18.98;;
22336;SDS011;14992;50.844;4.418;2023-09-12T04:54:04;44.65;;;24.48;;
22336;SDS011;14992;50.844;4.418;2023-09-12T04:56:33;32.63;;;19.25;;
22336;SDS011;14992;50.844;4.418;2023-09-12T04:59:02;32.13;;;18.38;;
22336;SDS011;14992;50.844;4.418;2023-09-12T05:01:33;30.50;;;18.30;;
22336;SDS011;14992;50.844;4.418;2023-09-12T05:04:02;31.10;;;18.42;;
22336;SDS011;14992;50.844;4.418;2023-09-12T05:06:31;31.02;;;18.63;;
22336;SDS011;14992;50.844;4.418;2023-09-12T05:09:03;35.08;;;18.95;;
22336;SDS011;14992;50.844;4.418;2023-09-12T05:11:33;41.10;;;21.92;;
22336;SDS011;14992;50.844;4.418;2023-09-12T05:14:02;31.73;;;18.52;;
22336;SDS011;14992;50.844;4.418;2023-09-12T05:16:31;29.55;;;17.60;;
22336;SDS011;14992;50.844;4.418;2023-09-12T05:19:00;32.47;;;19.75;;
22336;SDS011;14992;50.844;4.418;2023-09-12T05:21:31;32.35;;;17.92;;
22336;SDS011;14992;50.844;4.418;2023-09-12T05:23:59;27.13;;;17.08;;
22336;SDS011;14992;50.844;4.418;2023-09-12T05:26:30;38.88;;;21.27;;
22336;SDS011;14992;50.844;4.418;2023-09-12T05:28:59;32.70;;;19.02;;
22336;SDS011;14992;50.844;4.418;2023-09-12T05:31:28;36.38;;;20.13;;
22336;SDS011;14992;50.844;4.418;2023-09-12T05:33:59;33.50;;;19.40;;
22336;SDS011;14992;50.844;4.418;2023-09-12T05:36:28;32.90;;;18.15;;
22336;SDS011;14992;50.844;4.418;2023-09-12T05:38:57;34.08;;;18.58;;
22336;SDS011;14992;50.844;4.418;2023-09-12T05:41:27;37.22;;;19.10;;
22336;SDS011;14992;50.844;4.418;2023-09-12T05:43:58;37.30;;;19.83;;
22336;SDS011;14992;50.844;4.418;2023-09-12T05:46:27;31.38;;;19.75;;
22336;SDS011;14992;50.844;4.418;2023-09-12T05:48:56;38.90;;;19.42;;
22336;SDS011;14992;50.844;4.418;2023-09-12T05:51:25;31.38;;;17.65;;
22336;SDS011;14992;50.844;4.418;2023-09-12T05:53:54;34.00;;;19.25;;
22336;SDS011;14992;50.844;4.418;2023-09-12T05:56:23;32.05;;;17.50;;
22336;SDS011;14992;50.844;4.418;2023-09-12T05:58:51;34.15;;;19.35;;
22336;SDS011;14992;50.844;4.418;2023-09-12T06:01:21;33.05;;;18.65;;
22336;SDS011;14992;50.844;4.418;2023-09-12T06:03:50;35.53;;;19.17;;
22336;SDS011;14992;50.844;4.418;2023-09-12T06:06:21;35.65;;;19.13;;
22336;SDS011;14992;50.844;4.418;2023-09-12T06:08:50;39.13;;;19.75;;
22336;SDS011;14992;50.844;4.418;2023-09-12T06:11:20;35.28;;;20.05;;
22336;SDS011;14992;50.844;4.418;2023-09-12T06:13:49;36.47;;;20.27;;
22336;SDS011;14992;50.844;4.418;2023-09-12T06:16:18;37.08;;;18.88;;
22336;SDS011;14992;50.844;4.418;2023-09-12T06:18:48;38.22;;;20.95;;
22336;SDS011;14992;50.844;4.418;2023-09-12T06:21:17;42.83;;;19.92;;
22336;SDS011;14992;50.844;4.418;2023-09-12T06:23:48;35.25;;;19.58;;
22336;SDS011;14992;50.844;4.418;2023-09-12T06:26:35;35.22;;;19.27;;
22336;SDS011;14992;50.844;4.418;2023-09-12T06:29:05;35.80;;;19.30;;
22336;SDS011;14992;50.844;4.418;2023-09-12T06:31:34;38.70;;;19.88;;
22336;SDS011;14992;50.844;4.418;2023-09-12T06:34:04;35.72;;;20.05;;
22336;SDS011;14992;50.844;4.418;2023-09-12T06:36:34;34.42;;;20.75;;
22336;SDS011;14992;50.844;4.418;2023-09-12T06:39:03;35.10;;;18.52;;
22336;SDS011;14992;50.844;4.418;2023-09-12T06:41:32;32.13;;;18.77;;
22336;SDS011;14992;50.844;4.418;2023-09-12T06:44:01;28.05;;;18.00;;
22336;SDS011;14992;50.844;4.418;2023-09-12T06:46:32;30.20;;;17.77;;
22336;SDS011;14992;50.844;4.418;2023-09-12T06:49:04;29.98;;;16.80;;
22336;SDS011;14992;50.844;4.418;2023-09-12T06:51:33;28.60;;;18.05;;
22336;SDS011;14992;50.844;4.418;2023-09-12T06:54:05;28.17;;;17.30;;
22336;SDS011;14992;50.844;4.418;2023-09-12T06:56:34;26.13;;;16.35;;
22336;SDS011;14992;50.844;4.418;2023-09-12T06:59:05;30.33;;;15.95;;
22336;SDS011;14992;50.844;4.418;2023-09-12T07:01:34;26.30;;;16.35;;
22336;SDS011;14992;50.844;4.418;2023-09-12T07:04:05;28.65;;;18.75;;
22336;SDS011;14992;50.844;4.418;2023-09-12T07:06:34;35.83;;;21.10;;
22336;SDS011;14992;50.844;4.418;2023-09-12T07:09:03;28.67;;;18.60;;
22336;SDS011;14992;50.844;4.418;2023-09-12T07:11:35;28.63;;;16.60;;
22336;SDS011;14992;50.844;4.418;2023-09-12T07:14:04;31.00;;;16.92;;
22336;SDS011;14992;50.844;4.418;2023-09-12T07:16:33;28.23;;;16.70;;
22336;SDS011;14992;50.844;4.418;2023-09-12T07:19:02;33.17;;;18.40;;
22336;SDS011;14992;50.844;4.418;2023-09-12T07:21:32;30.55;;;17.27;;
22336;SDS011;14992;50.844;4.418;2023-09-12T07:24:02;26.25;;;17.02;;
22336;SDS011;14992;50.844;4.418;2023-09-12T07:26:31;25.23;;;16.25;;
22336;SDS011;14992;50.844;4.418;2023-09-12T07:29:00;28.45;;;18.15;;
22336;SDS011;14992;50.844;4.418;2023-09-12T07:31:31;27.40;;;16.27;;
22336;SDS011;14992;50.844;4.418;2023-09-12T07:34:00;32.10;;;18.15;;
22336;SDS011;14992;50.844;4.418;2023-09-12T07:36:36;30.83;;;18.42;;
22336;SDS011;14992;50.844;4.418;2023-09-12T07:39:05;31.63;;;19.27;;
22336;SDS011;14992;50.844;4.418;2023-09-12T07:41:34;33.10;;;18.42;;
22336;SDS011;14992;50.844;4.418;2023-09-12T07:44:03;31.65;;;18.48;;
22336;SDS011;14992;50.844;4.418;2023-09-12T07:46:32;35.03;;;18.95;;
22336;SDS011;14992;50.844;4.418;2023-09-12T07:49:01;32.80;;;17.30;;
22336;SDS011;14992;50.844;4.418;2023-09-12T07:51:30;29.65;;;17.48;;
22336;SDS011;14992;50.844;4.418;2023-09-12T07:54:00;26.13;;;16.95;;
22336;SDS011;14992;50.844;4.418;2023-09-12T07:56:29;29.10;;;18.13;;
22336;SDS011;14992;50.844;4.418;2023-09-12T07:58:58;26.00;;;17.13;;
22336;SDS011;14992;50.844;4.418;2023-09-12T08:01:27;29.80;;;15.25;;
22336;SDS011;14992;50.844;4.418;2023-09-12T08:03:56;32.03;;;16.27;;
22336;SDS011;14992;50.844;4.418;2023-09-12T08:06:25;28.10;;;15.45;;
22336;SDS011;14992;50.844;4.418;2023-09-12T08:08:54;27.77;;;15.77;;
22336;SDS011;14992;50.844;4.418;2023-09-12T08:11:24;28.13;;;15.65;;
22336;SDS011;14992;50.844;4.418;2023-09-12T08:13:54;26.77;;;15.32;;
22336;SDS011;14992;50.844;4.418;2023-09-12T08:16:24;33.92;;;16.67;;
22336;SDS011;14992;50.844;4.418;2023-09-12T08:18:53;28.15;;;19.27;;
22336;SDS011;14992;50.844;4.418;2023-09-12T08:21:22;21.50;;;14.43;;
22336;SDS011;14992;50.844;4.418;2023-09-12T08:23:51;27.23;;;15.43;;
22336;SDS011;14992;50.844;4.418;2023-09-12T08:26:19;24.60;;;14.80;;
22336;SDS011;14992;50.844;4.418;2023-09-12T08:28:50;26.15;;;15.75;;
22336;SDS011;14992;50.844;4.418;2023-09-12T08:31:19;29.23;;;16.77;;
22336;SDS011;14992;50.844;4.418;2023-09-12T08:33:50;30.23;;;15.65;;
22336;SDS011;14992;50.844;4.418;2023-09-12T08:36:19;25.75;;;14.45;;
22336;SDS011;14992;50.844;4.418;2023-09-12T08:38:47;23.50;;;14.95;;
22336;SDS011;14992;50.844;4.418;2023-09-12T08:41:16;24.95;;;13.35;;
22336;SDS011;14992;50.844;4.418;2023-09-12T08:43:45;27.77;;;16.13;;
22336;SDS011;14992;50.844;4.418;2023-09-12T08:46:16;24.63;;;14.98;;
22336;SDS011;14992;50.844;4.418;2023-09-12T08:48:46;28.67;;;15.40;;
22336;SDS011;14992;50.844;4.418;2023-09-12T08:51:17;26.95;;;14.85;;
22336;SDS011;14992;50.844;4.418;2023-09-12T08:53:46;29.45;;;16.52;;
22336;SDS011;14992;50.844;4.418;2023-09-12T08:56:15;21.30;;;13.02;;
22336;SDS011;14992;50.844;4.418;2023-09-12T08:58:44;19.77;;;12.50;;
22336;SDS011;14992;50.844;4.418;2023-09-12T09:01:14;17.50;;;11.00;;
22336;SDS011;14992;50.844;4.418;2023-09-12T09:03:46;20.73;;;11.23;;
22336;SDS011;14992;50.844;4.418;2023-09-12T09:06:16;20.98;;;12.88;;
22336;SDS011;14992;50.844;4.418;2023-09-12T09:08:46;23.77;;;13.70;;
22336;SDS011;14992;50.844;4.418;2023-09-12T09:11:17;21.95;;;13.02;;
22336;SDS011;14992;50.844;4.418;2023-09-12T09:13:46;19.38;;;11.50;;
22336;SDS011;14992;50.844;4.418;2023-09-12T09:16:17;16.45;;;10.32;;
22336;SDS011;14992;50.844;4.418;2023-09-12T09:18:51;17.35;;;11.55;;
22336;SDS011;14992;50.844;4.418;2023-09-12T09:21:22;18.20;;;11.10;;
22336;SDS011;14992;50.844;4.418;2023-09-12T09:23:53;17.42;;;10.98;;
22336;SDS011;14992;50.844;4.418;2023-09-12T09:26:22;17.77;;;11.25;;
22336;SDS011;14992;50.844;4.418;2023-09-12T09:29:05;19.27;;;11.73;;
22336;SDS011;14992;50.844;4.418;2023-09-12T09:31:40;18.52;;;10.48;;
22336;SDS011;14992;50.844;4.418;2023-09-12T09:34:13;15.57;;;8.70;;
22336;SDS011;14992;50.844;4.418;2023-09-12T09:36:44;17.83;;;10.57;;
22336;SDS011;14992;50.844;4.418;2023-09-12T09:39:16;19.35;;;10.00;;
22336;SDS011;14992;50.844;4.418;2023-09-12T09:41:46;16.13;;;8.60;;
22336;SDS011;14992;50.844;4.418;2023-09-12T09:44:16;13.82;;;8.30;;
22336;SDS011;14992;50.844;4.418;2023-09-12T09:46:46;13.00;;;8.70;;
22336;SDS011;14992;50.844;4.418;2023-09-12T09:49:19;10.85;;;6.68;;
22336;SDS011;14992;50.844;4.418;2023-09-12T09:51:49;12.07;;;6.30;;
22336;SDS011;14992;50.844;4.418;2023-09-12T09:54:18;10.85;;;7.00;;
22336;SDS011;14992;50.844;4.418;2023-09-12T09:56:47;15.05;;;8.50;;
22336;SDS011;14992;50.844;4.418;2023-09-12T09:59:18;14.50;;;8.38;;
22336;SDS011;14992;50.844;4.418;2023-09-12T10:04:23;15.85;;;8.30;;
22336;SDS011;14992;50.844;4.418;2023-09-12T10:06:55;12.75;;;7.15;;
22336;SDS011;14992;50.844;4.418;2023-09-12T10:09:25;14.52;;;9.68;;
22336;SDS011;14992;50.844;4.418;2023-09-12T10:11:55;15.25;;;9.77;;
22336;SDS011;14992;50.844;4.418;2023-09-12T10:14:26;15.52;;;10.65;;
22336;SDS011;14992;50.844;4.418;2023-09-12T10:17:00;17.23;;;10.80;;
22336;SDS011;14992;50.844;4.418;2023-09-12T10:19:36;17.27;;;12.18;;
22336;SDS011;14992;50.844;4.418;2023-09-12T10:22:09;16.73;;;10.68;;
22336;SDS011;14992;50.844;4.418;2023-09-12T10:24:40;15.65;;;10.52;;
22336;SDS011;14992;50.844;4.418;2023-09-12T10:27:12;17.13;;;10.52;;
22336;SDS011;14992;50.844;4.418;2023-09-12T10:29:41;19.35;;;10.82;;
22336;SDS011;14992;50.844;4.418;2023-09-12T10:32:15;18.77;;;11.35;;
22336;SDS011;14992;50.844;4.418;2023-09-12T10:34:46;17.70;;;10.57;;
22336;SDS011;14992;50.844;4.418;2023-09-12T10:37:17;15.23;;;10.85;;
22336;SDS011;14992;50.844;4.418;2023-09-12T10:39:50;18.52;;;11.40;;
22336;SDS011;14992;50.844;4.418;2023-09-12T10:42:21;13.70;;;10.00;;
22336;SDS011;14992;50.844;4.418;2023-09-12T10:44:54;16.58;;;10.15;;
22336;SDS011;14992;50.844;4.418;2023-09-12T10:47:27;14.40;;;9.70;;
22336;SDS011;14992;50.844;4.418;2023-09-12T10:49:56;10.38;;;7.22;;
22336;SDS011;14992;50.844;4.418;2023-09-12T10:52:25;8.98;;;6.50;;
22336;SDS011;14992;50.844;4.418;2023-09-12T10:54:54;11.38;;;7.88;;
22336;SDS011;14992;50.844;4.418;2023-09-12T10:57:24;14.93;;;8.98;;
22336;SDS011;14992;50.844;4.418;2023-09-12T11:00:11;12.38;;;8.88;;
22336;SDS011;14992;50.844;4.418;2023-09-12T11:02:42;12.02;;;8.02;;
22336;SDS011;14992;50.844;4.418;2023-09-12T11:08:06;11.02;;;8.30;;
22336;SDS011;14992;50.844;4.418;2023-09-12T11:10:35;9.32;;;7.28;;
22336;SDS011;14992;50.844;4.418;2023-09-12T11:13:04;9.10;;;6.13;;
22336;SDS011;14992;50.844;4.418;2023-09-12T11:15:33;8.27;;;5.47;;
22336;SDS011;14992;50.844;4.418;2023-09-12T11:18:05;8.77;;;6.28;;
22336;SDS011;14992;50.844;4.418;2023-09-12T11:20:51;8.93;;;6.40;;
22336;SDS011;14992;50.844;4.418;2023-09-12T11:23:21;8.82;;;6.55;;
22336;SDS011;14992;50.844;4.418;2023-09-12T11:26:02;9.70;;;7.00;;
22336;SDS011;14992;50.844;4.418;2023-09-12T11:28:32;9.35;;;6.72;;
22336;SDS011;14992;50.844;4.418;2023-09-12T11:31:01;7.00;;;5.90;;
22336;SDS011;14992;50.844;4.418;2023-09-12T11:33:31;11.18;;;7.95;;
22336;SDS011;14992;50.844;4.418;2023-09-12T11:36:01;9.20;;;6.70;;
22336;SDS011;14992;50.844;4.418;2023-09-12T11:38:37;10.40;;;6.43;;
22336;SDS011;14992;50.844;4.418;2023-09-12T11:41:06;10.23;;;6.88;;
22336;SDS011;14992;50.844;4.418;2023-09-12T11:43:35;9.15;;;6.50;;
22336;SDS011;14992;50.844;4.418;2023-09-12T11:46:06;8.02;;;6.53;;
22336;SDS011;14992;50.844;4.418;2023-09-12T11:48:37;11.60;;;6.55;;
22336;SDS011;14992;50.844;4.418;2023-09-12T11:51:07;7.43;;;5.38;;
22336;SDS011;14992;50.844;4.418;2023-09-12T11:53:36;8.48;;;5.80;;
22336;SDS011;14992;50.844;4.418;2023-09-12T11:56:05;8.45;;;5.43;;
22336;SDS011;14992;50.844;4.418;2023-09-12T11:58:34;6.95;;;5.03;;
22336;SDS011;14992;50.844;4.418;2023-09-12T12:01:03;10.00;;;5.47;;
22336;SDS011;14992;50.844;4.418;2023-09-12T12:03:32;5.80;;;4.47;;
22336;SDS011;14992;50.844;4.418;2023-09-12T12:06:03;6.35;;;4.35;;
22336;SDS011;14992;50.844;4.418;2023-09-12T12:08:33;5.90;;;4.93;;
22336;SDS011;14992;50.844;4.418;2023-09-12T12:11:03;8.80;;;5.68;;
22336;SDS011;14992;50.844;4.418;2023-09-12T12:13:34;7.43;;;5.78;;
22336;SDS011;14992;50.844;4.418;2023-09-12T12:16:14;6.78;;;5.72;;
22336;SDS011;14992;50.844;4.418;2023-09-12T12:18:43;9.30;;;5.20;;
22336;SDS011;14992;50.844;4.418;2023-09-12T12:21:14;9.40;;;6.57;;
22336;SDS011;14992;50.844;4.418;2023-09-12T12:23:42;10.57;;;6.40;;
22336;SDS011;14992;50.844;4.418;2023-09-12T12:26:12;7.35;;;5.40;;
22336;SDS011;14992;50.844;4.418;2023-09-12T12:28:40;6.38;;;5.07;;
22336;SDS011;14992;50.844;4.418;2023-09-12T12:31:10;5.78;;;5.13;;
22336;SDS011;14992;50.844;4.418;2023-09-12T12:33:39;5.40;;;4.22;;
22336;SDS011;14992;50.844;4.418;2023-09-12T12:36:29;7.65;;;4.72;;
22336;SDS011;14992;50.844;4.418;2023-09-12T12:39:00;8.32;;;5.50;;
22336;SDS011;14992;50.844;4.418;2023-09-12T12:41:29;10.10;;;5.22;;
22336;SDS011;14992;50.844;4.418;2023-09-12T12:44:15;7.72;;;5.25;;
22336;SDS011;14992;50.844;4.418;2023-09-12T12:46:48;9.98;;;5.80;;
22336;SDS011;14992;50.844;4.418;2023-09-12T12:49:17;12.32;;;7.13;;
22336;SDS011;14992;50.844;4.418;2023-09-12T12:51:48;7.20;;;5.53;;
22336;SDS011;14992;50.844;4.418;2023-09-12T12:54:21;7.57;;;5.60;;
22336;SDS011;14992;50.844;4.418;2023-09-12T12:56:52;9.23;;;5.80;;
22336;SDS011;14992;50.844;4.418;2023-09-12T12:59:21;9.20;;;6.93;;
22336;SDS011;14992;50.844;4.418;2023-09-12T13:01:50;21.52;;;15.98;;
22336;SDS011;14992;50.844;4.418;2023-09-12T13:04:19;7.75;;;5.90;;
22336;SDS011;14992;50.844;4.418;2023-09-12T13:06:50;9.68;;;5.45;;
22336;SDS011;14992;50.844;4.418;2023-09-12T13:09:19;9.75;;;4.90;;
22336;SDS011;14992;50.844;4.418;2023-09-12T13:11:48;8.35;;;5.32;;
22336;SDS011;14992;50.844;4.418;2023-09-12T13:14:17;7.72;;;5.45;;
22336;SDS011;14992;50.844;4.418;2023-09-12T13:16:46;9.25;;;6.65;;
22336;SDS011;14992;50.844;4.418;2023-09-12T13:19:15;10.38;;;6.60;;
22336;SDS011;14992;50.844;4.418;2023-09-12T13:21:44;9.38;;;6.78;;
22336;SDS011;14992;50.844;4.418;2023-09-12T13:24:14;7.28;;;6.15;;
22336;SDS011;14992;50.844;4.418;2023-09-12T13:26:43;8.93;;;6.35;;
22336;SDS011;14992;50.844;4.418;2023-09-12T13:29:12;9.15;;;7.03;;
22336;SDS011;14992;50.844;4.418;2023-09-12T13:31:41;12.35;;;7.80;;
22336;SDS011;14992;50.844;4.418;2023-09-12T13:34:10;11.10;;;6.93;;
22336;SDS011;14992;50.844;4.418;2023-09-12T13:36:39;11.43;;;6.18;;
22336;SDS011;14992;50.844;4.418;2023-09-12T13:39:08;7.78;;;5.43;;
22336;SDS011;14992;50.844;4.418;2023-09-12T13:41:41;8.25;;;6.28;;
22336;SDS011;14992;50.844;4.418;2023-09-12T13:44:10;10.13;;;5.78;;
22336;SDS011;14992;50.844;4.418;2023-09-12T13:46:39;9.35;;;6.63;;
22336;SDS011;14992;50.844;4.418;2023-09-12T13:49:11;9.60;;;6.60;;
22336;SDS011;14992;50.844;4.418;2023-09-12T13:51:40;9.02;;;6.10;;
22336;SDS011;14992;50.844;4.418;2023-09-12T13:54:09;8.60;;;6.22;;
22336;SDS011;14992;50.844;4.418;2023-09-12T13:56:43;11.70;;;6.45;;
22336;SDS011;14992;50.844;4.418;2023-09-12T13:59:12;10.73;;;6.32;;
22336;SDS011;14992;50.844;4.418;2023-09-12T14:01:42;9.77;;;6.50;;
22336;SDS011;14992;50.844;4.418;2023-09-12T14:04:11;8.15;;;6.45;;
22336;SDS011;14992;50.844;4.418;2023-09-12T14:06:42;9.65;;;6.25;;
22336;SDS011;14992;50.844;4.418;2023-09-12T14:09:11;9.10;;;6.68;;
22336;SDS011;14992;50.844;4.418;2023-09-12T14:11:46;9.95;;;6.57;;
22336;SDS011;14992;50.844;4.418;2023-09-12T14:14:15;11.70;;;7.13;;
22336;SDS011;14992;50.844;4.418;2023-09-12T14:16:47;12.18;;;8.07;;
22336;SDS011;14992;50.844;4.418;2023-09-12T14:19:17;11.52;;;7.95;;
22336;SDS011;14992;50.844;4.418;2023-09-12T14:21:46;11.15;;;8.63;;
22336;SDS011;14992;50.844;4.418;2023-09-12T14:24:16;12.75;;;8.70;;
22336;SDS011;14992;50.844;4.418;2023-09-12T14:26:48;12.50;;;9.13;;
22336;SDS011;14992;50.844;4.418;2023-09-12T14:29:18;12.25;;;8.95;;
22336;SDS011;14992;50.844;4.418;2023-09-12T14:31:49;25.27;;;21.33;;
22336;SDS011;14992;50.844;4.418;2023-09-12T14:34:24;9.68;;;7.65;;
22336;SDS011;14992;50.844;4.418;2023-09-12T14:36:54;13.65;;;7.82;;
22336;SDS011;14992;50.844;4.418;2023-09-12T14:39:24;12.07;;;7.78;;
22336;SDS011;14992;50.844;4.418;2023-09-12T14:41:54;13.32;;;8.98;;
22336;SDS011;14992;50.844;4.418;2023-09-12T14:44:24;11.40;;;8.32;;
22336;SDS011;14992;50.844;4.418;2023-09-12T14:46:53;14.02;;;8.50;;
22336;SDS011;14992;50.844;4.418;2023-09-12T14:49:22;10.98;;;7.53;;
22336;SDS011;14992;50.844;4.418;2023-09-12T14:51:52;10.13;;;7.90;;
22336;SDS011;14992;50.844;4.418;2023-09-12T14:54:21;12.55;;;7.90;;